createdAt,value
2022-08-12T00:01:14.452Z,70.60
2022-08-12T00:04:01.026Z,70.70
2022-08-12T00:06:47.562Z,71.00
2022-08-12T00:09:34.228Z,71.30
2022-08-12T00:12:21.342Z,71.40
2022-08-12T00:15:08.129Z,71.70
2022-08-12T00:17:54.858Z,71.80
2022-08-12T00:20:40.949Z,72.00
2022-08-12T00:23:27.005Z,71.90
2022-08-12T00:26:23.343Z,71.70
2022-08-12T00:29:12.007Z,71.50
2022-08-12T00:32:00.582Z,71.50
2022-08-12T00:34:49.665Z,71.70
2022-08-12T00:37:40.071Z,71.90
2022-08-12T00:40:31.894Z,72.00
2022-08-12T00:43:01.539Z,72.30
2022-08-12T00:45:49.000Z,72.30
2022-08-12T00:48:17.431Z,72.60
2022-08-12T00:50:47.644Z,72.90
2022-08-12T00:53:16.947Z,73.10
2022-08-12T00:55:47.871Z,72.30
2022-08-12T00:58:23.677Z,73.10
2022-08-12T01:00:52.352Z,73.80
2022-08-12T01:03:21.031Z,73.90
2022-08-12T01:06:08.185Z,74.30
2022-08-12T01:08:54.346Z,74.40
2022-08-12T01:11:32.873Z,74.40
2022-08-12T01:14:02.300Z,74.80
2022-08-12T01:16:30.585Z,75.40
2022-08-12T01:18:58.407Z,75.70
2022-08-12T01:21:52.410Z,75.90
2022-08-12T01:24:58.519Z,76.30
2022-08-12T01:27:28.896Z,76.60
2022-08-12T01:29:58.843Z,76.50
2022-08-12T01:32:28.782Z,76.70
2022-08-12T01:35:17.693Z,77.00
2022-08-12T01:37:58.406Z,77.60
2022-08-12T01:40:37.997Z,77.60
2022-08-12T01:43:09.879Z,77.70
2022-08-12T01:45:52.482Z,77.80
2022-08-12T01:48:50.013Z,78.00
2022-08-12T01:52:14.691Z,78.40
2022-08-12T01:54:23.905Z,78.30
2022-08-12T01:56:52.692Z,78.40
2022-08-12T01:59:50.202Z,78.70
2022-08-12T02:02:28.111Z,79.00
2022-08-12T02:06:01.494Z,78.80
2022-08-12T02:09:05.603Z,79.00
2022-08-12T02:11:41.601Z,78.90
2022-08-12T02:14:37.307Z,79.20
2022-08-12T02:17:55.104Z,79.60
2022-08-12T02:20:43.864Z,79.60
2022-08-12T02:23:15.304Z,79.90
2022-08-12T02:25:46.447Z,79.80
2022-08-12T02:28:14.477Z,80.10
2022-08-12T02:30:42.722Z,80.10
2022-08-12T02:33:11.893Z,80.20
2022-08-12T02:35:40.086Z,80.20
2022-08-12T02:38:12.514Z,80.40
2022-08-12T02:40:45.501Z,80.60
2022-08-12T02:43:21.779Z,80.70
2022-08-12T02:45:56.973Z,81.70
2022-08-12T02:48:43.082Z,80.90
2022-08-12T02:51:13.258Z,81.10
2022-08-12T02:53:45.121Z,81.00
2022-08-12T02:56:31.188Z,81.00
2022-08-12T02:59:01.227Z,81.10
2022-08-12T03:01:34.115Z,81.30
2022-08-12T03:04:20.353Z,81.40
2022-08-12T03:07:16.635Z,82.40
2022-08-12T03:10:05.410Z,81.80
2022-08-12T03:12:47.453Z,81.80
2022-08-12T03:15:22.449Z,81.80
2022-08-12T03:18:25.702Z,82.00
2022-08-12T03:20:41.208Z,82.00
2022-08-12T03:23:28.582Z,82.30
2022-08-12T03:26:02.725Z,82.60
2022-08-12T03:28:51.253Z,82.60
2022-08-12T03:31:32.521Z,82.70
2022-08-12T03:34:10.430Z,82.80
2022-08-12T03:36:39.998Z,82.90
2022-08-12T03:39:35.317Z,83.20
2022-08-12T03:42:30.494Z,83.30
2022-08-12T03:45:52.657Z,83.60
2022-08-12T03:48:39.514Z,83.90
2022-08-12T03:51:27.296Z,83.60
2022-08-12T03:54:14.194Z,83.90
2022-08-12T03:57:00.255Z,83.90
2022-08-12T03:59:46.236Z,83.90
2022-08-12T04:02:18.005Z,84.00
2022-08-12T04:04:46.400Z,84.20
2022-08-12T04:07:16.205Z,84.10
2022-08-12T04:09:46.208Z,84.10
2022-08-12T04:12:33.441Z,84.10
2022-08-12T04:15:02.583Z,83.90
2022-08-12T04:17:32.067Z,84.00
2022-08-12T04:19:59.863Z,84.10
2022-08-12T04:22:30.502Z,84.10
2022-08-12T04:25:01.319Z,84.30
2022-08-12T04:27:31.453Z,83.70
2022-08-12T04:30:30.843Z,84.10
2022-08-12T04:32:52.464Z,84.40
2022-08-12T04:35:22.370Z,84.70
2022-08-12T04:37:59.937Z,85.60
2022-08-12T04:40:31.709Z,85.80
2022-08-12T04:43:03.182Z,85.00
2022-08-12T04:45:33.149Z,85.10
2022-08-12T04:48:02.141Z,85.20
2022-08-12T04:50:35.975Z,85.20
2022-08-12T04:53:08.290Z,85.30
2022-08-12T04:55:38.600Z,85.20
2022-08-12T04:58:07.827Z,85.20
2022-08-12T05:00:37.976Z,85.10
2022-08-12T05:03:06.633Z,85.30
2022-08-12T05:05:36.427Z,85.30
2022-08-12T05:08:07.919Z,85.50
2022-08-12T05:10:36.025Z,85.50
2022-08-12T05:13:19.339Z,85.70
2022-08-12T05:16:02.521Z,86.10
2022-08-12T05:18:39.772Z,86.00
2022-08-12T05:21:10.609Z,86.20
2022-08-12T05:23:39.788Z,86.20
2022-08-12T05:26:07.979Z,86.20
2022-08-12T05:28:36.671Z,86.20
2022-08-12T05:31:04.999Z,86.40
2022-08-12T05:33:41.000Z,86.50
2022-08-12T05:36:13.640Z,86.60
2022-08-12T05:38:59.456Z,86.80
2022-08-12T05:41:35.264Z,86.90
2022-08-12T05:44:08.756Z,87.20
2022-08-12T05:46:37.452Z,87.20
2022-08-12T05:49:06.309Z,87.20
2022-08-12T05:51:40.071Z,87.40
2022-08-12T05:54:11.246Z,87.30
2022-08-12T05:56:40.752Z,87.50
2022-08-12T05:59:11.469Z,87.50
2022-08-12T06:02:12.667Z,87.70
2022-08-12T06:04:28.307Z,87.00
2022-08-12T06:06:56.204Z,87.60
2022-08-12T06:09:25.626Z,87.80
2022-08-12T06:12:04.448Z,88.00
2022-08-12T06:14:37.070Z,88.10
2022-08-12T06:17:09.038Z,88.20
2022-08-12T06:20:28.564Z,88.40
2022-08-12T06:22:28.378Z,88.60
2022-08-12T06:24:56.060Z,88.80
2022-08-12T06:27:24.138Z,88.10
2022-08-12T06:30:08.582Z,88.80
2022-08-12T06:32:51.964Z,89.20
2022-08-12T06:35:48.208Z,89.30
2022-08-12T06:38:22.369Z,89.40
2022-08-12T06:41:13.134Z,89.50
2022-08-12T06:44:05.725Z,89.60
2022-08-12T06:46:31.666Z,89.40
2022-08-12T06:49:00.925Z,89.60
2022-08-12T06:51:30.525Z,89.70
2022-08-12T06:54:00.032Z,89.80
2022-08-12T06:56:46.350Z,89.80
2022-08-12T06:59:15.892Z,89.70
2022-08-12T07:01:51.230Z,89.80
2022-08-12T07:04:37.931Z,89.80
2022-08-12T07:07:08.380Z,89.60
2022-08-12T07:10:03.719Z,89.60
2022-08-12T07:12:26.981Z,89.60
2022-08-12T07:15:01.988Z,89.60
2022-08-12T07:17:35.822Z,89.80
2022-08-12T07:20:29.710Z,89.80
2022-08-12T07:22:59.527Z,90.00
2022-08-12T07:25:31.021Z,90.00
2022-08-12T07:28:17.109Z,90.00
2022-08-12T07:30:48.617Z,90.10
2022-08-12T07:33:18.075Z,90.00
2022-08-12T07:35:48.031Z,90.00
2022-08-12T07:38:30.486Z,90.50
2022-08-12T07:41:02.545Z,90.30
2022-08-12T07:43:31.911Z,90.30
2022-08-12T07:46:00.454Z,90.40
2022-08-12T07:48:28.254Z,90.50
2022-08-12T07:50:55.906Z,90.50
2022-08-12T07:53:23.814Z,90.50
2022-08-12T07:55:51.550Z,90.40
2022-08-12T07:58:19.093Z,90.30
2022-08-12T08:00:46.561Z,90.30
2022-08-12T08:03:15.238Z,90.20
2022-08-12T08:05:49.720Z,90.10
2022-08-12T08:08:20.665Z,90.00
2022-08-12T08:10:49.325Z,89.70
2022-08-12T08:13:17.438Z,89.10
2022-08-12T08:16:02.469Z,89.10
2022-08-12T08:18:31.413Z,88.80
2022-08-12T08:20:59.197Z,88.40
2022-08-12T08:23:56.047Z,88.00
2022-08-12T08:26:25.968Z,87.70
2022-08-12T08:28:53.917Z,87.30
2022-08-12T08:31:21.582Z,86.80
2022-08-12T08:34:09.613Z,86.40
2022-08-12T08:36:37.546Z,86.10
2022-08-12T08:39:09.735Z,85.70
2022-08-12T08:42:15.824Z,85.30
2022-08-12T08:44:43.487Z,85.00
2022-08-12T08:47:12.760Z,84.60
2022-08-12T08:49:40.627Z,84.10
2022-08-12T08:52:10.985Z,83.30
2022-08-12T08:54:38.804Z,82.80
2022-08-12T08:57:08.460Z,82.00
2022-08-12T08:59:36.407Z,81.20
2022-08-12T09:02:04.401Z,80.80
2022-08-12T09:05:13.156Z,80.10
2022-08-12T09:07:52.027Z,79.80
2022-08-12T09:10:15.506Z,79.20
2022-08-12T09:13:22.913Z,78.50
2022-08-12T09:15:55.955Z,77.90
2022-08-12T09:18:30.823Z,77.10
2022-08-12T09:20:58.728Z,76.00
2022-08-12T09:24:00.869Z,75.10
2022-08-12T09:26:19.743Z,74.10
2022-08-12T09:32:06.720Z,73.30
2022-08-12T09:34:29.326Z,72.60
2022-08-12T09:37:02.996Z,72.20
2022-08-12T09:40:01.985Z,71.80
2022-08-12T09:43:15.202Z,70.90
2022-08-12T09:46:12.116Z,70.30
2022-08-12T09:48:34.915Z,69.90
2022-08-12T09:51:17.131Z,69.20
2022-08-12T09:54:06.837Z,68.60
2022-08-12T09:56:58.634Z,68.00
2022-08-12T10:00:12.783Z,66.50
2022-08-12T10:02:43.278Z,66.00
2022-08-12T10:05:05.214Z,65.30
2022-08-12T10:07:40.048Z,64.10
2022-08-12T10:10:24.658Z,62.90
2022-08-12T10:13:34.832Z,61.90
2022-08-12T10:16:05.155Z,61.70
2022-08-12T10:18:35.483Z,61.80
2022-08-12T10:21:07.471Z,61.10
2022-08-12T10:23:40.333Z,61.80
2022-08-12T10:26:37.254Z,60.40
2022-08-12T10:30:37.715Z,59.60
2022-08-12T10:32:42.859Z,59.20
2022-08-12T10:35:09.728Z,58.20
2022-08-12T10:38:35.453Z,57.70
2022-08-12T10:40:31.439Z,56.90
2022-08-12T10:43:19.223Z,56.20
2022-08-12T10:45:49.318Z,55.60
2022-08-12T10:48:33.277Z,54.50
2022-08-12T10:51:51.538Z,52.60
2022-08-12T10:54:00.993Z,51.60
2022-08-12T10:56:35.318Z,52.50
2022-08-12T10:59:10.861Z,50.30
2022-08-12T11:04:18.312Z,49.10
2022-08-12T11:04:44.162Z,48.60
2022-08-12T11:08:34.205Z,47.80
2022-08-12T11:10:05.548Z,45.90
2022-08-12T11:12:54.697Z,45.30
2022-08-12T11:15:33.004Z,43.80
2022-08-12T11:18:11.995Z,42.80
2022-08-12T11:20:47.824Z,41.90
2022-08-12T11:23:25.994Z,40.70
2022-08-12T11:26:05.892Z,40.70
2022-08-12T11:28:37.687Z,39.40
2022-08-12T11:31:11.990Z,38.40
2022-08-12T11:34:04.454Z,37.30
2022-08-12T11:36:29.293Z,36.80
2022-08-12T11:38:58.685Z,36.10
2022-08-12T11:41:34.543Z,35.50
2022-08-12T11:44:35.241Z,34.70
2022-08-12T11:46:53.089Z,34.20
2022-08-12T11:49:31.693Z,33.90
2022-08-12T11:52:04.205Z,32.90
2022-08-12T11:54:50.971Z,32.00
2022-08-12T11:58:07.263Z,31.80
2022-08-12T12:02:55.228Z,30.40
2022-08-12T12:05:22.843Z,30.00
2022-08-12T12:08:38.697Z,30.00
2022-08-12T12:10:43.690Z,29.40
2022-08-12T12:13:22.893Z,29.30
2022-08-12T12:16:01.054Z,30.40
2022-08-12T12:18:34.854Z,28.70
2022-08-12T12:21:08.328Z,28.10
2022-08-12T12:23:36.696Z,27.40
2022-08-12T12:26:09.889Z,27.40
2022-08-12T12:28:55.094Z,27.50
2022-08-12T12:32:10.557Z,27.60
2022-08-12T12:34:12.174Z,27.30
2022-08-12T12:36:58.362Z,27.20
2022-08-12T12:39:28.593Z,27.70
2022-08-12T12:42:45.604Z,27.10
2022-08-12T12:44:51.074Z,26.60
2022-08-12T12:47:30.098Z,26.60
2022-08-12T12:49:57.858Z,26.40
2022-08-12T12:52:27.130Z,26.20
2022-08-12T12:54:55.769Z,25.80
2022-08-12T12:57:58.911Z,25.50
2022-08-12T13:00:15.855Z,25.50
2022-08-12T13:02:53.724Z,25.30
2022-08-12T13:05:28.290Z,25.00
2022-08-12T13:08:01.784Z,24.80
2022-08-12T13:10:37.063Z,25.00
2022-08-12T13:14:07.500Z,24.50
2022-08-12T13:15:58.969Z,24.50
2022-08-12T13:18:33.508Z,24.40
2022-08-12T13:21:02.452Z,24.20
2022-08-12T13:23:37.338Z,24.10
2022-08-12T13:26:05.464Z,23.90
2022-08-12T13:28:33.176Z,23.50
2022-08-12T13:31:00.757Z,23.50
2022-08-12T13:33:29.399Z,23.10
2022-08-12T13:36:18.938Z,23.10
2022-08-12T13:38:54.283Z,22.80
2022-08-12T13:41:34.310Z,23.30
2022-08-12T13:44:10.474Z,22.80
2022-08-12T13:46:41.027Z,23.40
2022-08-12T13:49:20.481Z,22.90
2022-08-12T13:52:01.700Z,22.40
2022-08-12T13:54:29.719Z,22.20
2022-08-12T13:56:57.300Z,21.90
2022-08-12T13:59:26.729Z,21.80
2022-08-12T14:01:56.638Z,21.60
2022-08-12T14:04:24.879Z,21.70
2022-08-12T14:06:53.930Z,21.70
2022-08-12T14:09:21.422Z,21.40
2022-08-12T14:11:54.809Z,21.80
2022-08-12T14:14:31.448Z,21.20
2022-08-12T14:17:05.169Z,21.10
2022-08-12T14:19:36.060Z,21.30
2022-08-12T14:22:05.773Z,21.20
2022-08-12T14:24:40.629Z,21.00
2022-08-12T14:27:11.086Z,21.00
2022-08-12T14:30:05.419Z,21.00
2022-08-12T14:32:37.092Z,21.00
2022-08-12T14:35:09.511Z,21.10
2022-08-12T14:37:57.662Z,20.70
2022-08-12T14:40:29.050Z,20.50
2022-08-12T14:42:58.743Z,20.40
2022-08-12T14:45:45.583Z,20.60
2022-08-12T14:48:18.732Z,21.00
2022-08-12T14:52:10.257Z,20.50
2022-08-12T14:55:18.204Z,20.90
2022-08-12T14:59:56.416Z,20.50
2022-08-12T15:02:21.357Z,20.50
2022-08-12T15:04:52.374Z,20.50
2022-08-12T15:07:32.724Z,20.90
2022-08-12T15:10:02.379Z,20.30
2022-08-12T15:12:33.591Z,20.50
2022-08-12T15:15:01.104Z,20.60
2022-08-12T15:17:38.382Z,20.50
2022-08-12T15:20:31.567Z,21.00
2022-08-12T15:22:57.848Z,20.70
2022-08-12T15:25:30.173Z,20.90
2022-08-12T15:28:20.467Z,20.80
2022-08-12T15:30:52.221Z,20.70
2022-08-12T15:33:24.153Z,20.60
2022-08-12T15:35:54.038Z,20.40
2022-08-12T15:38:31.359Z,20.50
2022-08-12T15:41:01.026Z,20.50
2022-08-12T15:44:07.767Z,20.60
2022-08-12T15:46:25.543Z,20.50
2022-08-12T15:48:55.491Z,20.60
2022-08-12T15:51:59.627Z,20.70
2022-08-12T15:54:35.041Z,20.80
2022-08-12T15:57:07.668Z,20.80
2022-08-12T16:00:00.710Z,20.90
2022-08-12T16:02:29.868Z,21.00
2022-08-12T16:04:58.214Z,20.80
2022-08-12T16:07:32.601Z,21.00
2022-08-12T16:10:08.382Z,21.30
2022-08-12T16:12:54.693Z,21.20
2022-08-12T16:15:29.522Z,21.20
2022-08-12T16:18:25.962Z,21.40
2022-08-12T16:20:52.185Z,21.80
2022-08-12T16:23:36.060Z,22.60
2022-08-12T16:26:15.282Z,22.30
2022-08-12T16:28:47.329Z,22.30
2022-08-12T16:31:23.333Z,22.20
2022-08-12T16:33:58.840Z,22.10
2022-08-12T16:36:29.887Z,22.30
2022-08-12T16:39:01.105Z,22.70
2022-08-12T16:41:39.817Z,23.00
2022-08-12T16:44:10.916Z,23.10
2022-08-12T16:46:38.496Z,23.20
2022-08-12T16:49:09.226Z,23.50
2022-08-12T16:51:46.434Z,23.60
2022-08-12T16:54:17.141Z,23.90
2022-08-12T16:56:54.448Z,24.20
2022-08-12T16:59:23.859Z,24.00
2022-08-12T17:01:51.983Z,24.00
2022-08-12T17:04:24.266Z,24.10
2022-08-12T17:06:52.597Z,24.20
2022-08-12T17:09:20.310Z,24.30
2022-08-12T17:11:49.614Z,24.40
2022-08-12T17:14:22.977Z,24.60
2022-08-12T17:16:55.376Z,24.70
2022-08-12T17:20:30.505Z,24.90
2022-08-12T17:22:14.997Z,24.90
2022-08-12T17:24:54.601Z,24.80
2022-08-12T17:27:25.637Z,24.90
2022-08-12T17:30:02.679Z,25.00
2022-08-12T17:32:35.055Z,25.00
2022-08-12T17:35:21.398Z,25.20
2022-08-12T17:37:50.804Z,25.60
2022-08-12T17:40:36.140Z,26.20
2022-08-12T17:43:54.683Z,26.50
2022-08-12T17:45:58.957Z,26.70
2022-08-12T17:48:34.707Z,26.90
2022-08-12T17:51:15.473Z,26.90
2022-08-12T17:54:06.049Z,27.10
2022-08-12T17:56:37.397Z,27.20
2022-08-12T17:59:07.379Z,27.60
2022-08-12T18:01:36.582Z,27.80
2022-08-12T18:04:21.328Z,27.80
2022-08-12T18:06:52.148Z,28.30
2022-08-12T18:09:21.942Z,28.50
2022-08-12T18:12:12.144Z,29.00
2022-08-12T18:14:41.337Z,29.20
2022-08-12T18:17:17.947Z,29.40
2022-08-12T18:20:05.481Z,29.80
2022-08-12T18:22:34.122Z,30.10
2022-08-12T18:25:06.534Z,30.50
2022-08-12T18:27:43.823Z,31.60
2022-08-12T18:30:21.043Z,31.40
2022-08-12T18:33:05.207Z,31.70
2022-08-12T18:35:53.050Z,32.30
2022-08-12T18:38:24.776Z,32.60
2022-08-12T18:41:21.089Z,33.00
2022-08-12T18:44:09.671Z,33.40
2022-08-12T18:46:47.528Z,34.10
2022-08-12T18:49:30.778Z,34.40
2022-08-12T18:52:04.864Z,34.80
2022-08-12T18:54:49.159Z,35.80
2022-08-12T18:58:06.067Z,35.80
2022-08-12T19:00:22.154Z,36.00
2022-08-12T19:02:53.447Z,36.40
2022-08-12T19:05:45.798Z,36.80
2022-08-12T19:08:13.316Z,37.10
2022-08-12T19:10:50.275Z,37.50
2022-08-12T19:13:39.860Z,38.10
2022-08-12T19:16:10.849Z,38.30
2022-08-12T19:18:40.926Z,38.50
2022-08-12T19:21:16.344Z,39.00
2022-08-12T19:24:08.578Z,39.40
2022-08-12T19:26:37.620Z,39.70
2022-08-12T19:29:07.621Z,40.20
2022-08-12T19:31:57.153Z,40.50
2022-08-12T19:35:53.818Z,40.90
2022-08-12T19:38:03.230Z,41.40
2022-08-12T19:40:31.007Z,41.70
2022-08-12T19:43:20.395Z,41.90
2022-08-12T19:45:57.806Z,42.40
2022-08-12T19:48:30.720Z,42.90
2022-08-12T19:51:09.378Z,43.00
2022-08-12T19:53:57.445Z,43.20
2022-08-12T19:56:29.997Z,43.70
2022-08-12T19:59:18.774Z,44.10
2022-08-12T20:02:02.355Z,44.30
2022-08-12T20:04:33.014Z,44.50
2022-08-12T20:07:01.061Z,44.80
2022-08-12T20:09:28.710Z,45.20
2022-08-12T20:12:15.042Z,45.50
2022-08-12T20:14:48.413Z,45.90
2022-08-12T20:17:16.602Z,46.10
2022-08-12T20:20:16.994Z,46.20
2022-08-12T20:22:43.001Z,46.50
2022-08-12T20:25:13.216Z,46.90
2022-08-12T20:28:03.174Z,47.50
2022-08-12T20:30:52.343Z,48.00
2022-08-12T20:33:32.421Z,48.40
2022-08-12T20:36:42.936Z,49.00
2022-08-12T20:39:17.559Z,49.60
2022-08-12T20:41:58.872Z,50.00
2022-08-12T20:44:27.487Z,50.30
2022-08-12T20:47:11.836Z,50.80
2022-08-12T20:49:55.492Z,51.50
2022-08-12T20:52:41.634Z,51.70
2022-08-12T20:55:15.848Z,51.90
2022-08-12T20:58:01.849Z,52.60
2022-08-12T21:00:30.971Z,53.10
2022-08-12T21:03:18.541Z,53.50
2022-08-12T21:06:11.740Z,54.00
2022-08-12T21:08:43.364Z,54.30
2022-08-12T21:11:11.158Z,55.30
2022-08-12T21:13:41.775Z,55.20
2022-08-12T21:16:10.499Z,55.80
2022-08-12T21:18:39.091Z,56.10
2022-08-12T21:21:06.904Z,56.40
2022-08-12T21:23:52.390Z,56.80
2022-08-12T21:26:24.432Z,57.20
2022-08-12T21:29:01.387Z,57.70
2022-08-12T21:32:38.077Z,57.90
2022-08-12T21:34:29.129Z,58.40
2022-08-12T21:37:13.059Z,58.60
2022-08-12T21:39:52.270Z,59.40
2022-08-12T21:42:20.948Z,59.30
2022-08-12T21:45:46.456Z,59.70
2022-08-12T21:47:43.962Z,60.30
2022-08-12T21:50:13.935Z,61.00
2022-08-12T21:52:42.485Z,61.40
2022-08-12T21:55:19.761Z,62.00
2022-08-12T21:57:54.617Z,62.60
2022-08-12T22:00:35.060Z,63.10
2022-08-12T22:04:03.023Z,63.30
2022-08-12T22:06:26.269Z,63.80
2022-08-12T22:09:02.420Z,64.10
2022-08-12T22:11:41.513Z,64.60
2022-08-12T22:14:21.584Z,65.00
2022-08-12T22:16:54.337Z,65.20
2022-08-12T22:19:22.874Z,65.90
2022-08-12T22:21:54.588Z,66.10
2022-08-12T22:24:26.882Z,66.40
2022-08-12T22:27:31.493Z,66.90
2022-08-12T22:30:16.696Z,67.40
2022-08-12T22:32:49.972Z,67.20
2022-08-12T22:35:55.376Z,67.60
2022-08-12T22:38:26.302Z,68.00
2022-08-12T22:41:03.593Z,68.30
2022-08-12T22:43:59.795Z,68.70
2022-08-12T22:46:52.590Z,68.90
2022-08-12T22:49:37.094Z,69.30
2022-08-12T22:52:18.685Z,70.00
2022-08-12T22:55:02.853Z,70.00
2022-08-12T22:57:53.817Z,70.70
2022-08-12T23:00:24.667Z,71.00
2022-08-12T23:03:02.714Z,71.30
2022-08-12T23:05:36.722Z,72.10
2022-08-12T23:08:23.241Z,72.00
2022-08-12T23:10:51.590Z,72.30
2022-08-12T23:13:43.223Z,72.70
2022-08-12T23:16:28.501Z,72.90
2022-08-12T23:19:01.584Z,73.30
2022-08-12T23:22:06.603Z,73.50
2022-08-12T23:24:35.565Z,73.90
2022-08-12T23:27:23.080Z,73.90
2022-08-12T23:30:17.809Z,74.50
2022-08-12T23:32:40.875Z,74.70
2022-08-12T23:35:08.745Z,74.90
2022-08-12T23:37:47.609Z,75.10
2022-08-12T23:40:24.400Z,75.40
2022-08-12T23:42:54.916Z,75.50
2022-08-12T23:45:31.493Z,74.60
2022-08-12T23:48:01.383Z,75.30
2022-08-12T23:50:34.471Z,76.00
2022-08-12T23:53:22.670Z,76.30
2022-08-12T23:55:50.743Z,76.60
2022-08-12T23:58:25.716Z,76.60
